National Weather Service Raw Text Product

Displaying AFOS PIL: TAFALO Received: 2017-11-15 00:35 UTC


971 
FTUS43 KDMX 150035 AAA
TAFALO
TAF AMD
KALO 150035Z 1501/1524 15008KT 2SM -DZ BR OVC006
     FM150400 19009KT 3SM BR VCSH OVC004
     FM151100 28010KT P6SM OVC007
     FM151300 30014G21KT P6SM BKN028=